createdAt,value
2023-03-27T00:01:30.829Z,99065.73
2023-03-27T00:04:01.300Z,99061.14
2023-03-27T00:06:29.668Z,99058.92
2023-03-27T00:08:58.392Z,99065.83
2023-03-27T00:11:30.170Z,99067.24
2023-03-27T00:14:04.519Z,99063.50
2023-03-27T00:16:32.803Z,99060.27
2023-03-27T00:19:02.046Z,99061.31
2023-03-27T00:21:32.339Z,99060.81
2023-03-27T00:24:01.059Z,99062.38
2023-03-27T00:26:30.818Z,99062.37
2023-03-27T00:29:00.565Z,99064.77
2023-03-27T00:31:29.090Z,99061.48
2023-03-27T00:33:57.629Z,99062.88
2023-03-27T00:36:26.157Z,99062.70
2023-03-27T00:38:54.684Z,99068.04
2023-03-27T00:41:23.032Z,99063.92
2023-03-27T00:43:54.396Z,99064.95
2023-03-27T00:46:25.646Z,99064.08
2023-03-27T00:48:54.256Z,99066.95
2023-03-27T00:51:22.460Z,99070.02
2023-03-27T00:53:50.988Z,99071.20
2023-03-27T00:56:20.266Z,99071.67
2023-03-27T00:59:01.540Z,99073.02
2023-03-27T01:01:30.265Z,99075.55
2023-03-27T01:04:00.255Z,99078.81
2023-03-27T01:06:28.969Z,99080.83
2023-03-27T01:09:01.797Z,99080.97
2023-03-27T01:11:49.443Z,99085.42
2023-03-27T01:14:23.456Z,99084.23
2023-03-27T01:16:57.979Z,99084.59
2023-03-27T01:19:35.650Z,99086.81
2023-03-27T01:22:07.105Z,99085.86
2023-03-27T01:24:53.621Z,99084.52
2023-03-27T01:27:22.723Z,99085.09
2023-03-27T01:29:51.324Z,99088.80
2023-03-27T01:32:20.413Z,99091.31
2023-03-27T01:35:01.689Z,99094.80
2023-03-27T01:37:47.947Z,99100.16
2023-03-27T01:40:35.191Z,99098.86
2023-03-27T01:43:11.581Z,99099.54
2023-03-27T01:45:42.569Z,99102.64
2023-03-27T01:48:17.129Z,99101.97
2023-03-27T01:50:46.675Z,99100.67
2023-03-27T01:53:14.944Z,99104.58
2023-03-27T01:55:45.809Z,99108.27
2023-03-27T01:58:15.175Z,99108.88
2023-03-27T02:00:52.173Z,99108.57
2023-03-27T02:03:27.111Z,99105.69
2023-03-27T02:06:00.362Z,99108.75
2023-03-27T02:08:38.186Z,99108.52
2023-03-27T02:11:14.656Z,99112.70
2023-03-27T02:13:51.219Z,99107.40
2023-03-27T02:16:21.707Z,99103.32
2023-03-27T02:18:52.041Z,99104.98
2023-03-27T02:21:20.223Z,99103.38
2023-03-27T02:23:48.568Z,99097.61
2023-03-27T02:26:16.908Z,99098.23
2023-03-27T02:28:57.590Z,99099.77
2023-03-27T02:31:44.713Z,99098.33
2023-03-27T02:34:34.643Z,99102.73
2023-03-27T02:37:04.006Z,99100.50
2023-03-27T02:39:49.061Z,99097.48
2023-03-27T02:42:17.273Z,99099.83
2023-03-27T02:45:01.335Z,99096.13
2023-03-27T02:47:42.472Z,99097.05
2023-03-27T02:50:15.903Z,99096.25
2023-03-27T02:52:51.388Z,99101.14
2023-03-27T02:55:21.549Z,99100.66
2023-03-27T02:57:52.307Z,99095.85
2023-03-27T03:00:30.430Z,99101.79
2023-03-27T03:03:35.097Z,99100.40
2023-03-27T03:06:32.838Z,99099.23
2023-03-27T03:09:08.068Z,99099.80
2023-03-27T03:11:39.812Z,99099.48
2023-03-27T03:14:08.922Z,99103.49
2023-03-27T03:16:37.398Z,99109.29
2023-03-27T03:19:05.592Z,99110.34
2023-03-27T03:21:34.043Z,99113.09
2023-03-27T03:24:02.450Z,99111.89
2023-03-27T03:26:32.277Z,99119.85
2023-03-27T03:29:01.848Z,99124.65
2023-03-27T03:31:44.690Z,99120.77
2023-03-27T03:34:14.711Z,99121.86
2023-03-27T03:36:44.877Z,99121.65
2023-03-27T03:39:17.164Z,99121.47
2023-03-27T03:41:48.353Z,99121.14
2023-03-27T03:44:16.610Z,99120.22
2023-03-27T03:46:45.188Z,99119.70
2023-03-27T03:49:13.680Z,99121.77
2023-03-27T03:51:46.193Z,99126.25
2023-03-27T03:54:14.876Z,99132.23
2023-03-27T03:56:44.522Z,99133.56
2023-03-27T03:59:13.550Z,99134.04
2023-03-27T04:02:00.757Z,99142.24
2023-03-27T04:04:32.199Z,99140.45
2023-03-27T04:07:07.049Z,99134.90
2023-03-27T04:09:37.957Z,99140.16
2023-03-27T04:12:10.237Z,99140.21
2023-03-27T04:14:48.497Z,99135.98
2023-03-27T04:17:39.912Z,99135.81
2023-03-27T04:20:12.930Z,99139.83
2023-03-27T04:22:46.911Z,99140.63
2023-03-27T04:25:17.299Z,99143.66
2023-03-27T04:27:46.114Z,99149.08
2023-03-27T04:30:22.478Z,99152.48
2023-03-27T04:33:18.861Z,99156.30
2023-03-27T04:36:08.364Z,99162.97
2023-03-27T04:39:05.850Z,99169.31
2023-03-27T04:41:38.977Z,99176.39
2023-03-27T04:44:07.638Z,99179.46
2023-03-27T04:46:37.031Z,99185.23
2023-03-27T04:49:08.858Z,99182.89
2023-03-27T04:51:49.092Z,99179.85
2023-03-27T04:54:19.326Z,99174.36
2023-03-27T04:56:47.798Z,99174.55
2023-03-27T04:59:17.564Z,99177.61
2023-03-27T05:01:50.896Z,99191.89
2023-03-27T05:04:39.087Z,99195.68
2023-03-27T05:07:14.333Z,99199.41
2023-03-27T05:09:43.376Z,99204.34
2023-03-27T05:12:12.094Z,99208.66
2023-03-27T05:14:51.932Z,99218.99
2023-03-27T05:17:34.032Z,99225.85
2023-03-27T05:20:08.336Z,99228.35
2023-03-27T05:22:37.702Z,99227.08
2023-03-27T05:25:17.287Z,99234.54
2023-03-27T05:27:47.972Z,99233.35
2023-03-27T05:30:17.631Z,99234.83
2023-03-27T05:32:48.967Z,99229.48
2023-03-27T05:35:24.052Z,99228.61
2023-03-27T05:37:54.512Z,99230.05
2023-03-27T05:40:46.562Z,99231.22
2023-03-27T05:43:17.869Z,99228.36
2023-03-27T05:45:46.242Z,99225.64
2023-03-27T05:48:14.811Z,99234.28
2023-03-27T05:50:43.239Z,99238.34
2023-03-27T05:53:19.698Z,99245.66
2023-03-27T05:56:03.797Z,99246.02
2023-03-27T05:58:39.250Z,99250.19
2023-03-27T06:01:08.035Z,99256.67
2023-03-27T06:03:38.805Z,99264.43
2023-03-27T06:06:15.487Z,99266.08
2023-03-27T06:08:46.317Z,99268.31
2023-03-27T06:11:15.409Z,99272.30
2023-03-27T06:13:51.209Z,99278.04
2023-03-27T06:16:23.464Z,99282.02
2023-03-27T06:19:10.288Z,99285.23
2023-03-27T06:21:46.465Z,99285.45
2023-03-27T06:24:14.937Z,99288.27
2023-03-27T06:26:51.002Z,99297.63
2023-03-27T06:29:21.416Z,99301.64
2023-03-27T06:31:51.840Z,99307.48
2023-03-27T06:34:30.162Z,99311.91
2023-03-27T06:37:06.473Z,99317.27
2023-03-27T06:39:45.596Z,99319.91
2023-03-27T06:42:13.896Z,99319.73
2023-03-27T06:45:10.627Z,99323.80
2023-03-27T06:48:15.937Z,99325.42
2023-03-27T06:50:49.076Z,99333.45
2023-03-27T06:55:50.676Z,99343.61
2023-03-27T06:58:19.559Z,99341.56
2023-03-27T07:00:49.899Z,99344.94
2023-03-27T07:03:19.621Z,99348.66
2023-03-27T07:06:07.650Z,99359.89
2023-03-27T07:08:49.020Z,99359.64
2023-03-27T07:11:18.373Z,99361.95
2023-03-27T07:13:56.816Z,99362.80
2023-03-27T07:16:29.230Z,99363.38
2023-03-27T07:19:02.208Z,99364.54
2023-03-27T07:21:32.341Z,99367.00
2023-03-27T07:24:01.045Z,99366.05
2023-03-27T07:26:37.907Z,99363.48
2023-03-27T07:29:18.878Z,99367.65
2023-03-27T07:32:01.502Z,99370.17
2023-03-27T07:34:52.163Z,99374.09
2023-03-27T07:37:23.695Z,99377.52
2023-03-27T07:40:26.625Z,99377.10
2023-03-27T07:43:21.418Z,99376.11
2023-03-27T07:45:50.626Z,99376.21
2023-03-27T07:48:19.356Z,99375.45
2023-03-27T07:50:51.855Z,99371.79
2023-03-27T07:53:33.998Z,99369.23
2023-03-27T07:56:10.687Z,99368.54
2023-03-27T07:58:41.734Z,99369.86
2023-03-27T08:01:11.749Z,99373.11
2023-03-27T08:03:41.935Z,99373.42
2023-03-27T08:06:10.732Z,99372.89
2023-03-27T08:08:39.498Z,99372.72
2023-03-27T08:11:16.378Z,99377.04
2023-03-27T08:13:52.601Z,99377.14
2023-03-27T08:16:21.767Z,99378.11
2023-03-27T08:18:50.772Z,99371.98
2023-03-27T08:21:19.382Z,99379.39
2023-03-27T08:23:50.926Z,99378.03
2023-03-27T08:26:26.701Z,99375.33
2023-03-27T08:28:59.719Z,99374.16
2023-03-27T08:31:31.579Z,99379.96
2023-03-27T08:34:01.722Z,99378.52
2023-03-27T08:36:40.491Z,99381.10
2023-03-27T08:39:08.968Z,99383.75
2023-03-27T08:42:07.441Z,99385.30
2023-03-27T08:44:38.669Z,99381.34
2023-03-27T08:47:21.616Z,99384.89
2023-03-27T08:49:56.434Z,99387.72
2023-03-27T08:52:30.846Z,99383.40
2023-03-27T08:55:19.837Z,99386.64
2023-03-27T08:57:52.874Z,99384.20
2023-03-27T09:00:25.357Z,99384.37
2023-03-27T09:03:09.829Z,99377.48
2023-03-27T09:05:44.796Z,99377.84
2023-03-27T09:08:16.668Z,99377.30
2023-03-27T09:10:47.926Z,99374.59
2023-03-27T09:13:49.184Z,99372.98
2023-03-27T09:16:26.710Z,99380.61
2023-03-27T09:19:02.441Z,99381.92
2023-03-27T09:21:49.302Z,99387.13
2023-03-27T09:24:29.603Z,99387.63
2023-03-27T09:27:25.894Z,99388.58
2023-03-27T09:30:11.181Z,99397.30
2023-03-27T09:32:54.727Z,99398.38
2023-03-27T09:35:23.447Z,99394.86
2023-03-27T09:37:59.337Z,99398.06
2023-03-27T09:40:31.876Z,99393.85
2023-03-27T09:43:05.418Z,99386.67
2023-03-27T09:45:37.888Z,99389.66
2023-03-27T09:48:12.118Z,99391.27
2023-03-27T09:50:49.386Z,99390.91
2023-03-27T09:53:30.026Z,99387.15
2023-03-27T09:56:18.209Z,99391.54
2023-03-27T09:58:55.754Z,99392.84
2023-03-27T10:01:30.935Z,99386.92
2023-03-27T10:04:17.416Z,99382.67
2023-03-27T10:06:48.655Z,99376.52
2023-03-27T10:09:41.288Z,99379.36
2023-03-27T10:12:11.841Z,99381.67
2023-03-27T10:14:41.607Z,99381.95
2023-03-27T10:17:23.472Z,99380.54
2023-03-27T10:20:09.250Z,99387.73
2023-03-27T10:22:38.947Z,99384.66
2023-03-27T10:25:14.067Z,99383.23
2023-03-27T10:28:14.936Z,99384.06
2023-03-27T10:31:12.145Z,99381.11
2023-03-27T10:33:51.687Z,99380.22
2023-03-27T10:36:42.827Z,99378.85
2023-03-27T10:39:18.642Z,99379.22
2023-03-27T10:42:09.918Z,99378.57
2023-03-27T10:44:46.050Z,99375.80
2023-03-27T10:47:18.917Z,99377.88
2023-03-27T10:49:49.201Z,99377.14
2023-03-27T10:52:36.137Z,99377.18
2023-03-27T10:55:29.980Z,99378.84
2023-03-27T10:58:00.789Z,99381.98
2023-03-27T11:00:36.392Z,99387.47
2023-03-27T11:03:09.933Z,99384.70
2023-03-27T11:05:39.988Z,99378.96
2023-03-27T11:08:18.233Z,99383.23
2023-03-27T11:10:49.586Z,99380.36
2023-03-27T11:13:33.759Z,99387.16
2023-03-27T11:16:22.493Z,99390.80
2023-03-27T11:19:28.475Z,99385.31
2023-03-27T11:22:36.830Z,99388.58
2023-03-27T11:25:08.280Z,99386.23
2023-03-27T11:27:39.294Z,99385.48
2023-03-27T11:30:16.490Z,99382.15
2023-03-27T11:33:03.375Z,99389.39
2023-03-27T11:35:34.444Z,99398.16
2023-03-27T11:38:17.479Z,99396.91
2023-03-27T11:40:47.877Z,99394.19
2023-03-27T11:43:16.585Z,99395.63
2023-03-27T11:45:54.512Z,99394.02
2023-03-27T11:48:35.550Z,99393.02
2023-03-27T11:51:04.328Z,99395.45
2023-03-27T11:53:33.266Z,99402.09
2023-03-27T11:56:48.862Z,99397.55
2023-03-27T11:59:34.155Z,99394.56
2023-03-27T12:02:04.287Z,99395.71
2023-03-27T12:04:36.780Z,99393.50
2023-03-27T12:07:35.434Z,99395.56
2023-03-27T12:10:13.840Z,99393.98
2023-03-27T12:13:15.040Z,99398.61
2023-03-27T12:16:04.904Z,99398.11
2023-03-27T12:19:08.113Z,99400.01
2023-03-27T12:21:58.773Z,99401.95
2023-03-27T12:24:39.099Z,99399.45
2023-03-27T12:28:08.723Z,99395.88
2023-03-27T12:31:23.930Z,99396.92
2023-03-27T12:33:52.265Z,99398.52
2023-03-27T12:36:22.539Z,99399.14
2023-03-27T12:38:51.436Z,99398.36
2023-03-27T12:41:31.119Z,99396.00
2023-03-27T12:44:18.108Z,99395.58
2023-03-27T12:47:08.917Z,99392.02
2023-03-27T12:49:47.033Z,99392.49
2023-03-27T12:52:21.105Z,99387.23
2023-03-27T12:55:11.204Z,99391.75
2023-03-27T12:57:57.804Z,99387.90
2023-03-27T13:00:53.976Z,99385.96
2023-03-27T13:03:39.634Z,99388.04
2023-03-27T13:06:14.437Z,99394.48
2023-03-27T13:08:43.416Z,99399.48
2023-03-27T13:11:34.847Z,99403.20
2023-03-27T13:14:42.807Z,99400.31
2023-03-27T13:17:37.798Z,99395.95
2023-03-27T13:20:27.440Z,99394.52
2023-03-27T13:23:23.063Z,99390.48
2023-03-27T13:26:09.285Z,99394.55
2023-03-27T13:28:48.644Z,99394.89
2023-03-27T13:31:37.658Z,99393.95
2023-03-27T13:34:26.442Z,99391.46
2023-03-27T13:37:07.353Z,99396.01
2023-03-27T13:39:41.242Z,99399.89
2023-03-27T13:42:12.544Z,99398.74
2023-03-27T13:44:57.166Z,99401.27
2023-03-27T13:47:40.189Z,99402.36
2023-03-27T13:50:17.735Z,99401.69
2023-03-27T13:53:02.312Z,99398.42
2023-03-27T13:55:55.975Z,99398.52
2023-03-27T13:58:43.359Z,99398.59
2023-03-27T14:01:17.718Z,99400.62
2023-03-27T14:04:13.925Z,99404.01
2023-03-27T14:06:43.241Z,99403.98
2023-03-27T14:09:30.375Z,99396.40
2023-03-27T14:12:14.751Z,99398.02
2023-03-27T14:15:09.187Z,99398.23
2023-03-27T14:17:48.129Z,99399.81
2023-03-27T14:20:22.310Z,99398.92
2023-03-27T14:23:07.028Z,99394.49
2023-03-27T14:26:04.830Z,99395.88
2023-03-27T14:29:15.545Z,99394.48
2023-03-27T14:31:47.434Z,99394.66
2023-03-27T14:34:47.304Z,99398.63
2023-03-27T14:37:42.106Z,99396.43
2023-03-27T14:40:27.441Z,99396.68
2023-03-27T14:42:58.442Z,99394.20
2023-03-27T14:45:30.150Z,99398.07
2023-03-27T14:48:02.901Z,99394.68
2023-03-27T14:50:38.417Z,99393.21
2023-03-27T14:53:09.165Z,99395.52
2023-03-27T14:55:56.624Z,99389.23
2023-03-27T14:58:47.078Z,99387.02
2023-03-27T15:01:17.462Z,99378.68
2023-03-27T15:03:54.404Z,99380.20
2023-03-27T15:06:26.627Z,99386.41
2023-03-27T15:09:00.319Z,99384.19
2023-03-27T15:11:55.252Z,99382.97
2023-03-27T15:14:28.022Z,99384.38
2023-03-27T15:17:04.194Z,99382.33
2023-03-27T15:19:43.315Z,99382.59
2023-03-27T15:22:15.059Z,99382.11
2023-03-27T15:24:44.806Z,99382.09
2023-03-27T15:27:17.257Z,99379.77
2023-03-27T15:29:57.959Z,99383.02
2023-03-27T15:32:29.354Z,99378.84
2023-03-27T15:34:59.171Z,99382.75
2023-03-27T15:37:28.817Z,99378.44
2023-03-27T15:40:00.140Z,99381.08
2023-03-27T15:42:32.516Z,99386.13
2023-03-27T15:45:02.871Z,99383.13
2023-03-27T15:47:33.094Z,99383.48
2023-03-27T15:50:13.865Z,99384.64
2023-03-27T15:52:47.430Z,99384.27
2023-03-27T15:55:30.090Z,99387.33
2023-03-27T15:57:58.487Z,99384.41
2023-03-27T16:00:28.825Z,99385.61
2023-03-27T16:02:58.067Z,99386.15
2023-03-27T16:05:27.337Z,99388.39
2023-03-27T16:07:55.435Z,99387.71
2023-03-27T16:10:30.655Z,99391.69
2023-03-27T16:13:02.883Z,99389.07
2023-03-27T16:15:31.780Z,99395.41
2023-03-27T16:18:02.508Z,99393.80
2023-03-27T16:20:31.950Z,99400.33
2023-03-27T16:23:00.742Z,99405.11
2023-03-27T16:25:29.193Z,99407.13
2023-03-27T16:27:58.921Z,99409.48
2023-03-27T16:30:28.521Z,99410.14
2023-03-27T16:32:57.571Z,99406.08
2023-03-27T16:35:26.944Z,99410.34
2023-03-27T16:37:55.353Z,99410.30
2023-03-27T16:40:23.716Z,99407.82
2023-03-27T16:42:51.918Z,99408.21
2023-03-27T16:45:21.603Z,99411.35
2023-03-27T16:47:53.171Z,99410.35
2023-03-27T16:50:22.773Z,99414.04
2023-03-27T16:52:51.768Z,99413.96
2023-03-27T16:55:20.077Z,99415.09
2023-03-27T16:57:48.551Z,99415.71
2023-03-27T17:00:17.167Z,99417.16
2023-03-27T17:02:47.212Z,99419.40
2023-03-27T17:05:15.948Z,99420.47
2023-03-27T17:07:46.659Z,99421.33
2023-03-27T17:10:18.357Z,99419.76
2023-03-27T17:12:47.220Z,99428.23
2023-03-27T17:15:16.300Z,99425.05
2023-03-27T17:17:49.852Z,99426.02
2023-03-27T17:20:18.014Z,99422.48
2023-03-27T17:22:46.215Z,99421.76
2023-03-27T17:25:15.855Z,99420.52
2023-03-27T17:27:44.028Z,99422.78
2023-03-27T17:30:12.665Z,99422.77
2023-03-27T17:32:46.425Z,99418.59
2023-03-27T17:35:14.645Z,99418.73
2023-03-27T17:37:43.319Z,99419.86
2023-03-27T17:40:12.738Z,99419.79
2023-03-27T17:42:41.412Z,99415.89
2023-03-27T17:45:11.497Z,99413.55
2023-03-27T17:47:41.522Z,99412.52
2023-03-27T17:50:09.886Z,99410.88
2023-03-27T17:52:38.157Z,99410.64
2023-03-27T17:55:10.569Z,99403.89
2023-03-27T17:57:39.532Z,99400.90
2023-03-27T18:00:09.933Z,99394.76
2023-03-27T18:02:44.477Z,99396.10
2023-03-27T18:05:13.761Z,99394.19
2023-03-27T18:07:42.988Z,99394.20
2023-03-27T18:10:17.363Z,99385.23
2023-03-27T18:12:45.684Z,99378.86
2023-03-27T18:15:14.153Z,99381.86
2023-03-27T18:17:44.691Z,99383.11
2023-03-27T18:20:13.369Z,99384.01
2023-03-27T18:22:41.740Z,99380.23
2023-03-27T18:25:10.348Z,99382.31
2023-03-27T18:27:40.373Z,99380.21
2023-03-27T18:30:09.485Z,99381.04
2023-03-27T18:32:39.449Z,99381.52
2023-03-27T18:35:08.153Z,99379.40
2023-03-27T18:37:37.091Z,99373.63
2023-03-27T18:40:09.323Z,99375.66
2023-03-27T18:42:38.029Z,99369.38
2023-03-27T18:45:06.887Z,99368.33
2023-03-27T18:47:35.584Z,99363.35
2023-03-27T18:50:04.490Z,99360.81
2023-03-27T18:52:32.780Z,99365.41
2023-03-27T18:55:00.971Z,99369.60
2023-03-27T18:57:29.378Z,99370.10
2023-03-27T18:59:58.626Z,99370.48
2023-03-27T19:02:27.282Z,99371.04
2023-03-27T19:04:56.259Z,99374.83
2023-03-27T19:07:24.480Z,99379.48
2023-03-27T19:09:52.692Z,99382.98
2023-03-27T19:12:23.624Z,99384.46
2023-03-27T19:15:19.902Z,99378.06
2023-03-27T19:18:07.014Z,99377.12
2023-03-27T19:20:53.713Z,99385.94
2023-03-27T19:23:28.985Z,99380.19
2023-03-27T19:26:00.210Z,99383.02
2023-03-27T19:28:28.640Z,99377.98
2023-03-27T19:31:03.630Z,99370.69
2023-03-27T19:33:32.230Z,99362.89
2023-03-27T19:36:00.652Z,99362.46
2023-03-27T19:38:29.800Z,99366.20
2023-03-27T19:40:58.186Z,99363.00
2023-03-27T19:43:26.822Z,99358.04
2023-03-27T19:46:08.405Z,99355.88
2023-03-27T19:48:45.391Z,99352.54
2023-03-27T19:51:30.394Z,99350.25
2023-03-27T19:54:00.363Z,99346.77
2023-03-27T19:56:29.010Z,99344.71
2023-03-27T19:58:57.132Z,99347.17
2023-03-27T20:01:28.538Z,99348.66
2023-03-27T20:03:58.033Z,99353.25
2023-03-27T20:06:28.898Z,99359.23
2023-03-27T20:09:02.383Z,99363.48
2023-03-27T20:11:30.826Z,99361.83
2023-03-27T20:13:59.192Z,99352.41
2023-03-27T20:16:30.813Z,99356.48
2023-03-27T20:19:04.942Z,99347.80
2023-03-27T20:21:37.866Z,99344.84
2023-03-27T20:24:10.221Z,99344.08
2023-03-27T20:26:41.645Z,99345.38
2023-03-27T20:29:15.166Z,99336.69
2023-03-27T20:31:46.426Z,99336.66
2023-03-27T20:34:15.088Z,99340.07
2023-03-27T20:36:43.859Z,99335.89
2023-03-27T20:39:19.592Z,99331.56
2023-03-27T20:41:49.249Z,99337.43
2023-03-27T20:44:17.583Z,99338.63
2023-03-27T20:46:52.213Z,99336.35
2023-03-27T20:51:57.886Z,99335.03
2023-03-27T20:54:27.404Z,99328.73
2023-03-27T20:56:56.089Z,99325.73
2023-03-27T20:59:24.857Z,99326.86
2023-03-27T21:01:54.361Z,99327.29
2023-03-27T21:04:24.485Z,99327.23
2023-03-27T21:06:54.987Z,99321.98
2023-03-27T21:09:24.886Z,99319.98
2023-03-27T21:11:55.451Z,99317.08
2023-03-27T21:14:23.641Z,99313.47
2023-03-27T21:16:51.826Z,99307.82
2023-03-27T21:19:22.082Z,99303.70
2023-03-27T21:21:50.837Z,99302.64
2023-03-27T21:24:20.617Z,99297.52
2023-03-27T21:26:49.481Z,99288.23
2023-03-27T21:29:17.970Z,99280.32
2023-03-27T21:31:46.320Z,99278.40
2023-03-27T21:34:14.999Z,99273.23
2023-03-27T21:36:43.211Z,99270.61
2023-03-27T21:39:11.570Z,99267.63
2023-03-27T21:41:39.684Z,99260.86
2023-03-27T21:44:07.940Z,99257.55
2023-03-27T21:46:36.208Z,99261.80
2023-03-27T21:49:04.460Z,99256.70
2023-03-27T21:51:32.661Z,99259.73
2023-03-27T21:54:03.152Z,99260.85
2023-03-27T21:56:31.364Z,99264.74
2023-03-27T21:59:00.052Z,99259.66
2023-03-27T22:01:30.474Z,99259.53
2023-03-27T22:04:02.461Z,99262.46
2023-03-27T22:06:30.885Z,99266.77
2023-03-27T22:09:00.159Z,99265.56
2023-03-27T22:11:28.426Z,99263.72
2023-03-27T22:13:56.854Z,99267.92
2023-03-27T22:16:28.146Z,99259.55
2023-03-27T22:18:56.641Z,99252.57
2023-03-27T22:21:26.889Z,99248.33
2023-03-27T22:23:58.555Z,99250.48
2023-03-27T22:26:28.103Z,99251.95
2023-03-27T22:28:58.631Z,99253.23
2023-03-27T22:31:27.384Z,99257.98
2023-03-27T22:33:55.921Z,99255.27
2023-03-27T22:36:24.335Z,99252.25
2023-03-27T22:38:52.776Z,99248.67
2023-03-27T22:41:21.700Z,99246.48
2023-03-27T22:43:50.848Z,99243.40
2023-03-27T22:46:19.892Z,99243.77
2023-03-27T22:48:48.394Z,99245.99
2023-03-27T22:51:16.520Z,99237.75
2023-03-27T22:53:45.007Z,99235.73
2023-03-27T22:56:13.556Z,99230.77
2023-03-27T22:58:41.905Z,99235.16
2023-03-27T23:01:10.065Z,99230.05
2023-03-27T23:03:39.315Z,99232.16
2023-03-27T23:06:07.836Z,99232.40
2023-03-27T23:08:36.614Z,99224.48
2023-03-27T23:11:05.240Z,99221.95
2023-03-27T23:13:34.251Z,99220.13
2023-03-27T23:16:03.193Z,99221.88
2023-03-27T23:18:31.601Z,99217.74
2023-03-27T23:21:02.881Z,99210.83
2023-03-27T23:23:31.463Z,99208.23
2023-03-27T23:26:00.034Z,99208.23
2023-03-27T23:28:29.782Z,99206.31
2023-03-27T23:31:02.026Z,99194.92
2023-03-27T23:33:38.977Z,99189.41
2023-03-27T23:36:11.549Z,99193.20
2023-03-27T23:38:42.115Z,99192.52
2023-03-27T23:41:11.052Z,99185.47
2023-03-27T23:43:39.272Z,99182.02
2023-03-27T23:46:10.949Z,99175.20
2023-03-27T23:48:42.128Z,99175.54
2023-03-27T23:51:10.489Z,99169.02
2023-03-27T23:53:38.714Z,99163.35
2023-03-27T23:56:07.246Z,99160.94
2023-03-27T23:58:37.463Z,99155.27
